createdAt,value
2018-06-30T00:00:38.850Z,38.88
2018-06-30T00:03:07.350Z,38.80
2018-06-30T00:05:35.837Z,37.03
2018-06-30T00:08:04.335Z,31.40
2018-06-30T00:10:32.872Z,34.78
2018-06-30T00:13:01.972Z,33.83
2018-06-30T00:15:30.486Z,33.75
2018-06-30T00:17:58.970Z,39.25
2018-06-30T00:20:27.446Z,40.05
2018-06-30T00:22:56.108Z,36.65
2018-06-30T00:25:24.546Z,42.38
2018-06-30T00:27:55.717Z,37.73
2018-06-30T00:30:25.710Z,35.10
2018-06-30T00:32:54.910Z,39.05
2018-06-30T00:35:23.523Z,42.48
2018-06-30T00:37:52.030Z,33.58
2018-06-30T00:40:20.505Z,36.08
2018-06-30T00:42:49.542Z,37.28
2018-06-30T00:45:17.982Z,31.02
2018-06-30T00:47:46.488Z,39.18
2018-06-30T00:50:15.181Z,35.95
2018-06-30T00:52:43.664Z,35.03
2018-06-30T00:55:12.139Z,38.73
2018-06-30T00:57:40.611Z,34.03
2018-06-30T01:00:09.174Z,39.15
2018-06-30T01:02:37.655Z,39.85
2018-06-30T01:05:06.186Z,32.65
2018-06-30T01:07:34.716Z,37.73
2018-06-30T01:10:03.282Z,36.17
2018-06-30T01:12:31.822Z,44.70
2018-06-30T01:15:00.313Z,39.45
2018-06-30T01:17:28.834Z,46.63
2018-06-30T01:19:57.333Z,38.75
2018-06-30T01:22:25.836Z,32.80
2018-06-30T01:24:54.392Z,31.40
2018-06-30T01:27:22.867Z,50.70
2018-06-30T01:29:51.364Z,39.60
2018-06-30T01:32:19.864Z,43.83
2018-06-30T01:34:48.387Z,37.38
2018-06-30T01:37:16.893Z,41.65
2018-06-30T01:39:45.438Z,36.60
2018-06-30T01:42:13.910Z,37.90
2018-06-30T01:44:42.423Z,33.13
2018-06-30T01:47:11.154Z,30.60
2018-06-30T01:49:39.668Z,29.60
2018-06-30T01:55:21.303Z,35.40
2018-06-30T01:57:49.797Z,33.77
2018-06-30T02:00:18.331Z,46.70
2018-06-30T02:02:46.822Z,50.57
2018-06-30T02:05:15.339Z,65.05
2018-06-30T02:07:43.816Z,82.50
2018-06-30T02:10:12.354Z,70.77
2018-06-30T02:12:40.890Z,71.77
2018-06-30T02:15:09.389Z,60.15
2018-06-30T02:17:37.890Z,60.55
2018-06-30T02:20:06.455Z,50.52
2018-06-30T02:22:34.942Z,91.12
2018-06-30T02:25:03.465Z,59.27
2018-06-30T02:27:31.946Z,82.23
2018-06-30T02:30:00.686Z,68.42
2018-06-30T02:32:29.262Z,177.02
2018-06-30T02:34:57.780Z,61.60
2018-06-30T02:37:26.286Z,71.02
2018-06-30T02:39:54.806Z,44.80
2018-06-30T02:42:23.298Z,65.60
2018-06-30T02:44:51.811Z,51.13
2018-06-30T02:47:20.333Z,58.93
2018-06-30T02:49:48.858Z,46.70
2018-06-30T02:52:17.339Z,53.00
2018-06-30T02:54:45.946Z,63.43
2018-06-30T02:57:14.425Z,61.60
2018-06-30T02:59:43.246Z,56.93
2018-06-30T03:02:11.730Z,61.27
2018-06-30T03:04:40.615Z,78.93
2018-06-30T03:07:09.112Z,107.17
2018-06-30T03:09:37.680Z,131.57
2018-06-30T03:12:06.194Z,118.17
2018-06-30T03:14:35.224Z,195.18
2018-06-30T03:17:04.060Z,159.65
2018-06-30T03:19:32.576Z,129.47
2018-06-30T03:22:01.069Z,315.27
2018-06-30T03:24:29.601Z,80.87
2018-06-30T03:26:58.094Z,84.67
2018-06-30T03:29:26.665Z,89.63
2018-06-30T03:31:55.190Z,102.30
2018-06-30T03:34:23.698Z,75.13
2018-06-30T03:36:52.217Z,108.63
2018-06-30T03:39:20.731Z,103.70
2018-06-30T03:41:49.261Z,74.67
2018-06-30T03:44:17.755Z,86.80
2018-06-30T03:46:46.250Z,95.30
2018-06-30T03:49:14.744Z,89.17
2018-06-30T03:51:43.258Z,61.73
2018-06-30T03:54:11.747Z,151.03
2018-06-30T03:56:40.820Z,45.03
2018-06-30T03:59:09.347Z,77.78
2018-06-30T04:01:37.859Z,60.08
2018-06-30T04:04:06.354Z,87.05
2018-06-30T04:06:37.740Z,43.17
2018-06-30T04:09:08.818Z,68.83
2018-06-30T04:11:37.632Z,59.57
2018-06-30T04:14:06.127Z,35.17
2018-06-30T04:16:34.745Z,38.03
2018-06-30T04:19:08.562Z,135.50
2018-06-30T04:21:37.075Z,187.35
2018-06-30T04:24:05.571Z,58.42
2018-06-30T04:26:34.067Z,46.75
2018-06-30T04:29:02.749Z,50.20
2018-06-30T04:31:31.253Z,39.20
2018-06-30T04:33:59.753Z,70.12
2018-06-30T04:36:28.267Z,104.12
2018-06-30T04:38:56.779Z,79.05
2018-06-30T04:41:25.329Z,45.90
2018-06-30T04:43:54.044Z,31.75
2018-06-30T04:46:22.811Z,41.45
2018-06-30T04:48:51.286Z,32.88
2018-06-30T04:51:19.820Z,33.05
2018-06-30T04:53:48.315Z,25.57
2018-06-30T04:56:16.851Z,23.30
2018-06-30T04:58:45.397Z,39.83
2018-06-30T05:01:13.895Z,23.25
2018-06-30T05:03:42.424Z,24.27
2018-06-30T05:06:10.925Z,24.18
2018-06-30T05:08:39.405Z,23.20
2018-06-30T05:11:07.953Z,24.57
2018-06-30T05:13:36.469Z,22.65
2018-06-30T05:16:05.771Z,23.55
2018-06-30T05:18:34.266Z,23.15
2018-06-30T05:21:02.773Z,23.67
2018-06-30T05:23:31.325Z,22.40
2018-06-30T05:26:00.268Z,18.92
2018-06-30T05:28:28.679Z,16.25
2018-06-30T05:30:57.185Z,12.43
2018-06-30T05:33:25.718Z,8.88
2018-06-30T05:35:54.183Z,9.70
2018-06-30T05:38:22.678Z,8.18
2018-06-30T05:40:51.171Z,10.63
2018-06-30T05:43:19.647Z,8.23
2018-06-30T05:45:48.098Z,8.43
2018-06-30T05:48:16.925Z,9.65
2018-06-30T05:50:45.396Z,8.08
2018-06-30T05:53:13.965Z,6.65
2018-06-30T05:55:42.351Z,5.95
2018-06-30T05:58:10.846Z,21.33
2018-06-30T06:00:39.403Z,8.05
2018-06-30T06:03:07.905Z,5.28
2018-06-30T06:05:36.374Z,4.55
2018-06-30T06:08:04.894Z,4.47
2018-06-30T06:10:33.387Z,6.78
2018-06-30T06:13:01.912Z,6.28
2018-06-30T06:15:30.390Z,4.70
2018-06-30T06:17:58.879Z,3.90
2018-06-30T06:20:27.593Z,10.63
2018-06-30T06:22:56.122Z,5.17
2018-06-30T06:25:24.647Z,4.37
2018-06-30T06:27:55.142Z,3.52
2018-06-30T06:30:23.727Z,9.00
2018-06-30T06:32:52.346Z,4.28
2018-06-30T06:35:20.944Z,6.90
2018-06-30T06:37:49.514Z,4.17
2018-06-30T06:40:18.094Z,4.17
2018-06-30T06:42:46.678Z,8.30
2018-06-30T06:45:15.306Z,4.35
2018-06-30T06:47:43.955Z,4.67
2018-06-30T06:50:12.532Z,4.90
2018-06-30T06:52:41.052Z,6.90
2018-06-30T06:55:09.539Z,4.75
2018-06-30T06:57:38.153Z,5.45
2018-06-30T07:00:06.923Z,5.55
2018-06-30T07:02:35.859Z,4.67
2018-06-30T07:05:04.796Z,7.72
2018-06-30T07:07:33.423Z,7.65
2018-06-30T07:10:02.043Z,6.00
2018-06-30T07:12:34.006Z,5.78
2018-06-30T07:15:02.680Z,3.52
2018-06-30T07:17:31.263Z,4.53
2018-06-30T07:19:59.831Z,3.85
2018-06-30T07:22:28.630Z,4.80
2018-06-30T07:24:57.394Z,3.85
2018-06-30T07:27:25.923Z,5.47
2018-06-30T07:29:54.384Z,4.03
2018-06-30T07:32:22.928Z,6.75
2018-06-30T07:34:51.406Z,4.37
2018-06-30T07:37:20.232Z,6.87
2018-06-30T07:39:48.655Z,3.95
2018-06-30T07:42:23.510Z,5.33
2018-06-30T07:44:52.003Z,6.67
2018-06-30T07:47:20.651Z,3.90
2018-06-30T07:49:49.203Z,3.22
2018-06-30T07:52:17.879Z,4.50
2018-06-30T07:54:46.450Z,3.75
2018-06-30T07:57:15.298Z,7.37
2018-06-30T07:59:43.795Z,3.47
2018-06-30T08:02:12.226Z,3.33
2018-06-30T08:04:40.703Z,3.75
2018-06-30T08:07:09.147Z,4.37
2018-06-30T08:09:37.595Z,4.80
2018-06-30T08:12:06.061Z,4.78
2018-06-30T08:14:34.542Z,7.22
2018-06-30T08:17:02.974Z,9.43
2018-06-30T08:19:31.427Z,4.42
2018-06-30T08:21:59.883Z,3.27
2018-06-30T08:24:28.618Z,4.55
2018-06-30T08:26:57.323Z,4.15
2018-06-30T08:29:27.589Z,3.77
2018-06-30T08:31:56.743Z,4.72
2018-06-30T08:34:27.637Z,8.93
2018-06-30T08:36:59.899Z,4.08
2018-06-30T08:39:29.520Z,4.97
2018-06-30T08:41:58.482Z,5.97
2018-06-30T08:44:27.599Z,4.70
2018-06-30T08:46:57.668Z,4.40
2018-06-30T08:49:28.423Z,8.38
2018-06-30T08:51:58.360Z,4.58
2018-06-30T08:54:27.413Z,6.47
2018-06-30T08:56:57.582Z,5.03
2018-06-30T08:59:27.546Z,4.33
2018-06-30T09:01:58.951Z,6.37
2018-06-30T09:04:28.886Z,6.55
2018-06-30T09:06:59.675Z,8.53
2018-06-30T09:09:29.111Z,4.90
2018-06-30T09:12:03.860Z,4.72
2018-06-30T09:14:34.645Z,4.08
2018-06-30T09:17:04.792Z,5.62
2018-06-30T09:19:34.746Z,7.58
2018-06-30T09:22:04.856Z,6.62
2018-06-30T09:24:35.762Z,4.80
2018-06-30T09:27:05.964Z,10.58
2018-06-30T09:29:36.571Z,10.78
2018-06-30T09:32:05.702Z,6.03
2018-06-30T09:34:34.842Z,5.72
2018-06-30T09:37:03.980Z,5.33
2018-06-30T09:39:34.735Z,7.33
2018-06-30T09:42:05.702Z,8.20
2018-06-30T09:44:36.979Z,7.95
2018-06-30T09:47:07.281Z,7.85
2018-06-30T09:49:36.405Z,8.33
2018-06-30T09:52:05.616Z,9.03
2018-06-30T09:54:34.809Z,7.00
2018-06-30T09:57:05.573Z,7.00
2018-06-30T09:59:36.147Z,9.68
2018-06-30T10:02:06.268Z,7.30
2018-06-30T10:04:37.406Z,10.23
2018-06-30T10:07:08.032Z,9.78
2018-06-30T10:09:38.377Z,7.10
2018-06-30T10:12:09.405Z,7.20
2018-06-30T10:14:40.711Z,9.23
2018-06-30T10:17:09.823Z,8.13
2018-06-30T10:19:40.347Z,11.05
2018-06-30T10:22:10.482Z,11.10
2018-06-30T10:24:42.182Z,9.10
2018-06-30T10:27:12.443Z,9.28
2018-06-30T10:29:42.835Z,9.93
2018-06-30T10:32:14.265Z,10.32
2018-06-30T10:34:45.397Z,8.93
2018-06-30T10:37:14.370Z,8.60
2018-06-30T10:39:44.781Z,9.03
2018-06-30T10:42:13.940Z,8.65
2018-06-30T10:44:45.896Z,9.33
2018-06-30T10:47:16.072Z,10.05
2018-06-30T10:49:45.592Z,12.95
2018-06-30T10:52:16.107Z,10.68
2018-06-30T10:54:47.305Z,9.38
2018-06-30T10:57:17.048Z,11.08
2018-06-30T10:59:47.768Z,9.28
2018-06-30T11:02:17.091Z,10.20
2018-06-30T11:04:46.435Z,10.50
2018-06-30T11:07:17.638Z,10.20
2018-06-30T11:09:48.778Z,10.23
2018-06-30T11:12:19.047Z,8.38
2018-06-30T11:14:49.705Z,9.98
2018-06-30T11:17:18.862Z,9.38
2018-06-30T11:19:49.041Z,9.25
2018-06-30T11:22:19.610Z,9.80
2018-06-30T11:24:49.131Z,8.70
2018-06-30T11:27:19.722Z,8.25
2018-06-30T11:29:50.647Z,7.95
2018-06-30T11:35:15.871Z,8.08
2018-06-30T11:37:45.254Z,10.13
2018-06-30T11:40:16.593Z,7.15
2018-06-30T11:42:46.653Z,6.92
2018-06-30T11:45:17.718Z,6.03
2018-06-30T11:47:49.945Z,7.78
2018-06-30T11:50:20.235Z,6.85
2018-06-30T11:52:50.164Z,8.68
2018-06-30T11:55:20.839Z,7.12
2018-06-30T11:57:50.062Z,7.60
2018-06-30T12:00:21.574Z,9.70
2018-06-30T12:02:50.158Z,9.20
2018-06-30T12:05:18.749Z,6.97
2018-06-30T12:07:47.230Z,8.05
2018-06-30T12:10:15.912Z,9.20
2018-06-30T12:12:44.418Z,6.97
2018-06-30T12:15:12.957Z,7.12
2018-06-30T12:17:41.463Z,6.58
2018-06-30T12:20:10.211Z,7.03
2018-06-30T12:22:38.738Z,8.10
2018-06-30T12:25:07.641Z,6.97
2018-06-30T12:27:36.131Z,5.75
2018-06-30T12:30:09.461Z,5.78
2018-06-30T12:32:38.997Z,6.03
2018-06-30T12:35:08.616Z,8.28
2018-06-30T12:37:37.182Z,5.65
2018-06-30T12:40:05.771Z,6.22
2018-06-30T12:42:34.465Z,5.65
2018-06-30T12:45:02.975Z,5.42
2018-06-30T12:47:32.449Z,5.75
2018-06-30T12:50:00.957Z,5.00
2018-06-30T12:52:29.543Z,7.05
2018-06-30T12:54:57.996Z,6.15
2018-06-30T12:57:29.656Z,5.40
2018-06-30T12:59:58.362Z,6.42
2018-06-30T13:02:30.053Z,5.70
2018-06-30T13:04:58.657Z,9.33
2018-06-30T13:07:27.743Z,4.90
2018-06-30T13:09:58.544Z,7.65
2018-06-30T13:12:28.755Z,6.03
2018-06-30T13:14:58.532Z,7.95
2018-06-30T13:17:28.586Z,5.42
2018-06-30T13:19:59.959Z,5.25
2018-06-30T13:22:29.419Z,10.38
2018-06-30T13:24:58.832Z,5.05
2018-06-30T13:27:29.755Z,6.47
2018-06-30T13:30:00.204Z,6.17
2018-06-30T13:32:30.564Z,8.95
2018-06-30T13:35:00.805Z,6.78
2018-06-30T13:37:30.275Z,7.58
2018-06-30T13:40:00.964Z,5.00
2018-06-30T13:42:34.281Z,4.87
2018-06-30T13:45:04.408Z,4.33
2018-06-30T13:47:35.405Z,4.92
2018-06-30T13:50:05.545Z,4.67
2018-06-30T13:52:34.674Z,4.83
2018-06-30T13:55:05.247Z,5.55
2018-06-30T13:57:34.976Z,4.47
2018-06-30T14:00:10.403Z,4.70
2018-06-30T14:02:41.421Z,6.03
2018-06-30T14:05:11.340Z,6.50
2018-06-30T14:07:42.827Z,3.42
2018-06-30T14:10:12.229Z,4.67
2018-06-30T14:12:44.687Z,3.85
2018-06-30T14:15:14.343Z,3.85
2018-06-30T14:17:44.397Z,5.87
2018-06-30T14:20:13.403Z,5.83
2018-06-30T14:22:45.331Z,3.75
2018-06-30T14:25:17.979Z,3.62
2018-06-30T14:27:50.618Z,5.45
2018-06-30T14:30:24.425Z,5.30
2018-06-30T14:32:55.505Z,2.50
2018-06-30T14:35:26.468Z,2.55
2018-06-30T14:37:57.458Z,3.42
2018-06-30T14:40:29.336Z,2.05
2018-06-30T14:43:00.136Z,3.33
2018-06-30T14:45:31.530Z,3.65
2018-06-30T14:48:04.427Z,3.27
2018-06-30T14:50:33.947Z,3.75
2018-06-30T14:53:06.104Z,3.17
2018-06-30T14:55:36.287Z,2.55
2018-06-30T14:58:07.966Z,2.90
2018-06-30T15:00:37.211Z,2.10
2018-06-30T15:03:06.198Z,3.35
2018-06-30T15:05:35.016Z,2.98
2018-06-30T15:08:04.002Z,2.40
2018-06-30T15:10:32.916Z,1.30
2018-06-30T15:13:01.852Z,4.75
2018-06-30T15:15:30.766Z,2.70
2018-06-30T15:17:59.605Z,3.17
2018-06-30T15:20:29.120Z,1.67
2018-06-30T15:22:58.062Z,4.12
2018-06-30T15:25:26.793Z,0.93
2018-06-30T15:27:55.491Z,1.87
2018-06-30T15:30:24.262Z,2.80
2018-06-30T15:32:53.146Z,3.27
2018-06-30T15:35:22.290Z,1.45
2018-06-30T15:37:51.291Z,1.77
2018-06-30T15:40:20.411Z,2.67
2018-06-30T15:42:49.126Z,1.45
2018-06-30T15:45:17.885Z,2.87
2018-06-30T15:47:47.014Z,2.25
2018-06-30T15:50:16.145Z,2.10
2018-06-30T15:52:45.059Z,3.35
2018-06-30T15:55:14.572Z,1.70
2018-06-30T15:57:43.208Z,1.10
2018-06-30T16:00:12.833Z,2.85
2018-06-30T16:02:41.773Z,2.22
2018-06-30T16:05:10.621Z,1.00
2018-06-30T16:07:39.420Z,2.00
2018-06-30T16:10:08.423Z,4.55
2018-06-30T16:12:37.421Z,2.95
2018-06-30T16:15:06.343Z,3.02
2018-06-30T16:17:34.964Z,2.10
2018-06-30T16:20:04.673Z,4.60
2018-06-30T16:22:39.126Z,3.67
2018-06-30T16:25:08.004Z,2.85
2018-06-30T16:27:36.916Z,2.40
2018-06-30T16:30:06.927Z,1.10
2018-06-30T16:32:35.681Z,1.92
2018-06-30T16:35:04.612Z,2.47
2018-06-30T16:37:33.414Z,2.12
2018-06-30T16:40:02.238Z,2.27
2018-06-30T16:42:31.095Z,1.50
2018-06-30T16:44:59.868Z,1.22
2018-06-30T16:47:28.714Z,2.92
2018-06-30T16:49:57.548Z,2.12
2018-06-30T16:52:26.317Z,4.20
2018-06-30T16:54:55.352Z,4.03
2018-06-30T16:57:24.214Z,2.77
2018-06-30T16:59:53.009Z,4.20
2018-06-30T17:02:21.763Z,0.68
2018-06-30T17:04:50.575Z,1.75
2018-06-30T17:07:19.445Z,1.80
2018-06-30T17:09:48.224Z,3.17
2018-06-30T17:12:26.904Z,2.08
2018-06-30T17:14:56.411Z,0.60
2018-06-30T17:17:25.267Z,0.50
2018-06-30T17:19:54.088Z,0.57
2018-06-30T17:22:23.005Z,1.40
2018-06-30T17:24:51.804Z,1.02
2018-06-30T17:27:20.602Z,0.62
2018-06-30T17:29:49.413Z,1.72
2018-06-30T17:35:32.647Z,0.55
2018-06-30T17:38:01.389Z,3.62
2018-06-30T17:40:30.170Z,1.52
2018-06-30T17:42:58.972Z,1.72
2018-06-30T17:45:27.718Z,2.90
2018-06-30T17:47:56.424Z,1.75
2018-06-30T17:50:25.248Z,1.00
2018-06-30T17:52:55.275Z,0.50
2018-06-30T17:55:24.168Z,0.90
2018-06-30T17:57:53.052Z,1.27
2018-06-30T18:00:22.591Z,0.37
2018-06-30T18:02:51.423Z,0.85
2018-06-30T18:05:20.156Z,3.58
2018-06-30T18:07:48.931Z,0.40
2018-06-30T18:10:17.914Z,2.65
2018-06-30T18:12:46.832Z,1.85
2018-06-30T18:15:15.792Z,1.47
2018-06-30T18:17:45.122Z,0.80
2018-06-30T18:20:13.927Z,2.47
2018-06-30T18:22:42.777Z,3.45
2018-06-30T18:25:11.580Z,4.40
2018-06-30T18:27:40.506Z,1.77
2018-06-30T18:30:09.316Z,1.67
2018-06-30T18:32:38.139Z,4.83
2018-06-30T18:35:07.250Z,1.75
2018-06-30T18:37:36.081Z,2.40
2018-06-30T18:40:06.285Z,4.33
2018-06-30T18:42:35.015Z,2.92
2018-06-30T18:45:04.047Z,2.30
2018-06-30T18:47:32.926Z,2.22
2018-06-30T18:50:01.719Z,2.08
2018-06-30T18:52:30.606Z,2.02
2018-06-30T18:54:59.449Z,3.25
2018-06-30T18:57:28.208Z,2.15
2018-06-30T18:59:57.271Z,2.37
2018-06-30T19:02:26.375Z,1.90
2018-06-30T19:04:55.114Z,2.72
2018-06-30T19:07:24.044Z,1.52
2018-06-30T19:09:52.956Z,5.25
2018-06-30T19:12:21.887Z,3.22
2018-06-30T19:14:50.697Z,2.25
2018-06-30T19:17:19.580Z,2.58
2018-06-30T19:19:48.510Z,3.10
2018-06-30T19:22:17.319Z,5.17
2018-06-30T19:24:46.143Z,3.40
2018-06-30T19:27:14.977Z,4.47
2018-06-30T19:29:44.345Z,2.33
2018-06-30T19:32:13.170Z,1.75
2018-06-30T19:34:42.013Z,2.12
2018-06-30T19:37:10.854Z,2.52
2018-06-30T19:39:40.479Z,1.45
2018-06-30T19:42:09.423Z,2.08
2018-06-30T19:44:38.329Z,2.15
2018-06-30T19:47:07.286Z,2.17
2018-06-30T19:49:36.090Z,3.20
2018-06-30T19:52:04.848Z,1.98
2018-06-30T19:54:33.822Z,1.55
2018-06-30T19:57:02.650Z,2.37
2018-06-30T19:59:31.440Z,2.90
2018-06-30T20:02:00.300Z,1.30
2018-06-30T20:04:29.188Z,1.70
2018-06-30T20:06:57.969Z,1.62
2018-06-30T20:09:26.743Z,2.25
2018-06-30T20:11:55.559Z,2.92
2018-06-30T20:14:24.208Z,3.35
2018-06-30T20:16:54.677Z,1.55
2018-06-30T20:19:23.440Z,1.95
2018-06-30T20:21:52.290Z,1.20
2018-06-30T20:24:21.043Z,2.05
2018-06-30T20:26:49.928Z,1.47
2018-06-30T20:29:18.764Z,1.35
2018-06-30T20:31:47.567Z,3.17
2018-06-30T20:34:16.398Z,2.42
2018-06-30T20:36:45.113Z,2.30
2018-06-30T20:39:14.055Z,3.08
2018-06-30T20:41:42.866Z,1.85
2018-06-30T20:44:11.619Z,1.50
2018-06-30T20:46:41.076Z,2.45
2018-06-30T20:49:09.956Z,1.87
2018-06-30T20:51:38.832Z,2.35
2018-06-30T20:54:07.602Z,2.75
2018-06-30T20:56:36.404Z,5.58
2018-06-30T20:59:04.946Z,1.98
2018-06-30T21:01:38.425Z,1.45
2018-06-30T21:04:07.023Z,2.17
2018-06-30T21:06:35.758Z,0.90
2018-06-30T21:09:06.755Z,2.25
2018-06-30T21:11:35.685Z,1.22
2018-06-30T21:14:04.623Z,4.35
2018-06-30T21:16:33.498Z,3.90
2018-06-30T21:19:02.341Z,2.55
2018-06-30T21:21:32.403Z,2.97
2018-06-30T21:24:01.269Z,1.67
2018-06-30T21:26:30.021Z,1.40
2018-06-30T21:28:58.860Z,1.17
2018-06-30T21:31:27.695Z,2.25
2018-06-30T21:33:56.534Z,1.17
2018-06-30T21:36:25.464Z,0.78
2018-06-30T21:38:54.343Z,0.70
2018-06-30T21:41:23.166Z,1.50
2018-06-30T21:43:52.011Z,1.42
2018-06-30T21:46:20.828Z,1.15
2018-06-30T21:48:49.626Z,1.10
2018-06-30T21:51:18.354Z,1.00
2018-06-30T21:53:47.212Z,1.93
2018-06-30T21:56:16.248Z,1.77
2018-06-30T21:58:44.988Z,2.97
2018-06-30T22:01:18.960Z,1.10
2018-06-30T22:03:47.764Z,3.63
2018-06-30T22:06:17.482Z,0.80
2018-06-30T22:08:46.515Z,1.33
2018-06-30T22:11:15.277Z,5.63
2018-06-30T22:13:44.276Z,1.53
2018-06-30T22:16:12.982Z,1.33
2018-06-30T22:18:41.791Z,0.60
2018-06-30T22:21:10.994Z,1.80
2018-06-30T22:23:39.717Z,0.70
2018-06-30T22:26:08.489Z,2.73
2018-06-30T22:28:37.337Z,0.60
2018-06-30T22:31:06.088Z,2.97
2018-06-30T22:33:34.866Z,0.90
2018-06-30T22:36:03.627Z,1.33
2018-06-30T22:38:32.426Z,1.20
2018-06-30T22:41:01.128Z,1.43
2018-06-30T22:43:30.686Z,1.33
2018-06-30T22:45:59.416Z,1.27
2018-06-30T22:48:28.186Z,2.50
2018-06-30T22:50:56.914Z,3.63
2018-06-30T22:53:25.681Z,1.13
2018-06-30T22:55:54.477Z,2.63
2018-06-30T22:58:23.199Z,1.30
2018-06-30T23:00:51.939Z,1.47
2018-06-30T23:03:20.733Z,6.53
2018-06-30T23:05:49.479Z,3.40
2018-06-30T23:08:18.344Z,1.60
2018-06-30T23:10:47.043Z,1.57
2018-06-30T23:13:15.831Z,1.33
2018-06-30T23:15:44.560Z,0.80
2018-06-30T23:18:13.487Z,2.03
2018-06-30T23:20:42.147Z,0.67
2018-06-30T23:23:11.973Z,1.70
2018-06-30T23:25:41.319Z,2.00
2018-06-30T23:28:10.168Z,1.23
2018-06-30T23:30:39.141Z,1.90
2018-06-30T23:33:07.883Z,2.43
2018-06-30T23:35:36.553Z,1.57
2018-06-30T23:38:05.399Z,0.97
2018-06-30T23:40:34.167Z,1.83
2018-06-30T23:43:02.904Z,1.57
2018-06-30T23:45:32.044Z,3.03
2018-06-30T23:48:00.903Z,0.80
2018-06-30T23:50:29.712Z,2.10
2018-06-30T23:52:58.741Z,1.10
2018-06-30T23:55:27.480Z,3.43
2018-06-30T23:57:56.177Z,1.53
